sensor_id;sensor_type;location;lat;lon;timestamp;pressure;altitude;pressure_sealevel;temperature;humidity
63901;BME280;50538;53.482;10.294;2023-02-26T00:08:55;101231.19;;;-0.61;90.87
63901;BME280;50538;53.482;10.294;2023-02-26T00:18:57;101253.31;;;-0.69;90.80
63901;BME280;50538;53.482;10.294;2023-02-26T00:28:58;101256.38;;;-0.78;90.64
63901;BME280;50538;53.482;10.294;2023-02-26T00:49:17;101280.97;;;-0.99;91.11
63901;BME280;50538;53.482;10.294;2023-02-26T00:59:22;101299.00;;;-1.12;91.35
63901;BME280;50538;53.482;10.294;2023-02-26T01:09:28;101311.56;;;-1.20;91.22
63901;BME280;50538;53.482;10.294;2023-02-26T01:29:38;101323.91;;;-1.23;90.75
63901;BME280;50538;53.482;10.294;2023-02-26T01:39:43;101325.59;;;-1.22;89.95
63901;BME280;50538;53.482;10.294;2023-02-26T01:49:46;101338.69;;;-1.24;86.96
63901;BME280;50538;53.482;10.294;2023-02-26T01:59:50;101340.16;;;-1.18;86.22
63901;BME280;50538;53.482;10.294;2023-02-26T02:09:54;101347.97;;;-1.18;84.65
63901;BME280;50538;53.482;10.294;2023-02-26T02:20:22;101365.28;;;-1.17;81.50
63901;BME280;50538;53.482;10.294;2023-02-26T02:40:51;101393.72;;;-1.13;81.24
63901;BME280;50538;53.482;10.294;2023-02-26T02:51:01;101411.91;;;-1.11;80.91
63901;BME280;50538;53.482;10.294;2023-02-26T03:01:06;101424.53;;;-1.21;79.22
63901;BME280;50538;53.482;10.294;2023-02-26T03:11:10;101441.50;;;-1.31;79.80
63901;BME280;50538;53.482;10.294;2023-02-26T03:31:21;101467.56;;;-1.50;80.15
63901;BME280;50538;53.482;10.294;2023-02-26T03:41:37;101473.13;;;-1.57;81.63
63901;BME280;50538;53.482;10.294;2023-02-26T03:51:39;101504.81;;;-1.67;82.54
63901;BME280;50538;53.482;10.294;2023-02-26T04:12:12;101524.97;;;-1.90;84.28
63901;BME280;50538;53.482;10.294;2023-02-26T04:22:14;101535.91;;;-2.03;85.28
63901;BME280;50538;53.482;10.294;2023-02-26T04:32:16;101543.00;;;-2.06;84.78
63901;BME280;50538;53.482;10.294;2023-02-26T04:42:20;101555.34;;;-2.11;85.39
63901;BME280;50538;53.482;10.294;2023-02-26T04:52:21;101567.84;;;-2.19;85.32
63901;BME280;50538;53.482;10.294;2023-02-26T05:02:23;101577.84;;;-2.31;85.68
63901;BME280;50538;53.482;10.294;2023-02-26T05:12:23;101594.63;;;-2.38;86.29
63901;BME280;50538;53.482;10.294;2023-02-26T05:22:27;101604.53;;;-2.47;86.15
63901;BME280;50538;53.482;10.294;2023-02-26T05:32:27;101617.78;;;-2.53;85.97
63901;BME280;50538;53.482;10.294;2023-02-26T05:42:28;101620.44;;;-2.55;86.59
63901;BME280;50538;53.482;10.294;2023-02-26T05:52:32;101640.56;;;-2.60;86.54
63901;BME280;50538;53.482;10.294;2023-02-26T06:02:32;101664.94;;;-2.63;86.43
63901;BME280;50538;53.482;10.294;2023-02-26T06:12:33;101672.00;;;-2.66;86.70
63901;BME280;50538;53.482;10.294;2023-02-26T06:22:34;101692.97;;;-2.71;85.61
63901;BME280;50538;53.482;10.294;2023-02-26T06:32:35;101702.47;;;-2.70;85.84
63901;BME280;50538;53.482;10.294;2023-02-26T06:42:35;101724.78;;;-2.64;85.77
63901;BME280;50538;53.482;10.294;2023-02-26T06:52:36;101751.91;;;-2.48;85.61
63901;BME280;50538;53.482;10.294;2023-02-26T07:02:37;101752.06;;;-2.29;84.84
63901;BME280;50538;53.482;10.294;2023-02-26T07:12:37;101769.72;;;-2.15;83.90
63901;BME280;50538;53.482;10.294;2023-02-26T07:22:38;101784.84;;;-2.03;84.48
63901;BME280;50538;53.482;10.294;2023-02-26T07:32:38;101800.66;;;-1.86;83.70
63901;BME280;50538;53.482;10.294;2023-02-26T07:42:39;101818.50;;;-1.55;84.64
63901;BME280;50538;53.482;10.294;2023-02-26T07:52:40;101824.56;;;-1.12;83.74
63901;BME280;50538;53.482;10.294;2023-02-26T08:02:42;101824.91;;;-0.60;81.38
63901;BME280;50538;53.482;10.294;2023-02-26T08:12:44;101834.97;;;-0.14;79.06
63901;BME280;50538;53.482;10.294;2023-02-26T08:22:49;101835.34;;;0.33;77.47
63901;BME280;50538;53.482;10.294;2023-02-26T08:32:53;101852.22;;;0.80;76.40
63901;BME280;50538;53.482;10.294;2023-02-26T08:43:03;101867.41;;;1.25;75.71
63901;BME280;50538;53.482;10.294;2023-02-26T08:53:30;101884.44;;;1.82;74.53
63901;BME280;50538;53.482;10.294;2023-02-26T09:03:39;101890.81;;;2.10;73.00
63901;BME280;50538;53.482;10.294;2023-02-26T09:13:43;101915.81;;;2.47;69.30
63901;BME280;50538;53.482;10.294;2023-02-26T09:23:44;101933.00;;;2.68;68.11
63901;BME280;50538;53.482;10.294;2023-02-26T09:33:45;101945.00;;;2.88;67.44
63901;BME280;50538;53.482;10.294;2023-02-26T09:44:30;101948.31;;;3.06;66.67
63901;BME280;50538;53.482;10.294;2023-02-26T09:55:01;101966.84;;;3.18;63.48
63901;BME280;50538;53.482;10.294;2023-02-26T10:16:04;101962.53;;;3.17;63.58
63901;BME280;50538;53.482;10.294;2023-02-26T10:58:52;101999.31;;;3.31;64.67
63901;BME280;50538;53.482;10.294;2023-02-26T11:08:55;102006.59;;;3.42;64.74
63901;BME280;50538;53.482;10.294;2023-02-26T11:19:32;102002.34;;;3.69;63.90
63901;BME280;50538;53.482;10.294;2023-02-26T11:30:29;102015.16;;;4.04;63.71
63901;BME280;50538;53.482;10.294;2023-02-26T11:40:37;102016.56;;;4.24;61.42
63901;BME280;50538;53.482;10.294;2023-02-26T11:50:44;102005.19;;;4.23;63.04
63901;BME280;50538;53.482;10.294;2023-02-26T12:00:46;102008.59;;;4.11;67.92
63901;BME280;50538;53.482;10.294;2023-02-26T12:32:09;102020.88;;;4.67;62.01
63901;BME280;50538;53.482;10.294;2023-02-26T12:42:39;102026.44;;;4.49;65.83
63901;BME280;50538;53.482;10.294;2023-02-26T12:53:18;102026.25;;;4.38;67.53
63901;BME280;50538;53.482;10.294;2023-02-26T13:35:45;102022.75;;;4.65;66.14
63901;BME280;50538;53.482;10.294;2023-02-26T14:08:52;102022.97;;;4.89;65.19
63901;BME280;50538;53.482;10.294;2023-02-26T14:19:32;102014.59;;;4.97;61.12
63901;BME280;50538;53.482;10.294;2023-02-26T14:40:56;102034.84;;;5.36;64.89
63901;BME280;50538;53.482;10.294;2023-02-26T14:51:42;102040.66;;;5.41;65.90
63901;BME280;50538;53.482;10.294;2023-02-26T15:12:28;102040.38;;;5.58;63.82
63901;BME280;50538;53.482;10.294;2023-02-26T15:34:15;102060.59;;;5.18;66.83
63901;BME280;50538;53.482;10.294;2023-02-26T15:45:19;102065.00;;;4.77;68.08
63901;BME280;50538;53.482;10.294;2023-02-26T15:55:32;102075.09;;;4.56;69.38
63901;BME280;50538;53.482;10.294;2023-02-26T16:05:35;102077.59;;;4.29;70.95
63901;BME280;50538;53.482;10.294;2023-02-26T16:16:20;102086.03;;;4.06;70.02
63901;BME280;50538;53.482;10.294;2023-02-26T17:37:31;102173.13;;;2.39;73.29
63901;BME280;50538;53.482;10.294;2023-02-26T17:47:44;102195.94;;;2.20;73.10
63901;BME280;50538;53.482;10.294;2023-02-26T17:58:49;102205.69;;;1.99;74.61
63901;BME280;50538;53.482;10.294;2023-02-26T18:08:58;102223.03;;;1.84;74.98
63901;BME280;50538;53.482;10.294;2023-02-26T18:19:07;102220.16;;;1.72;76.59
63901;BME280;50538;53.482;10.294;2023-02-26T18:29:30;102217.47;;;1.54;75.71
63901;BME280;50538;53.482;10.294;2023-02-26T18:39:56;102227.94;;;1.35;76.24
63901;BME280;50538;53.482;10.294;2023-02-26T18:50:57;102236.97;;;1.10;76.86
63901;BME280;50538;53.482;10.294;2023-02-26T19:01:20;102246.28;;;0.96;77.69
63901;BME280;50538;53.482;10.294;2023-02-26T19:11:52;102250.31;;;0.83;79.62
63901;BME280;50538;53.482;10.294;2023-02-26T19:43:34;102251.69;;;0.31;82.11
63901;BME280;50538;53.482;10.294;2023-02-26T19:53:55;102251.38;;;0.17;83.53
63901;BME280;50538;53.482;10.294;2023-02-26T20:03:59;102259.69;;;0.06;83.32
63901;BME280;50538;53.482;10.294;2023-02-26T20:14:42;102273.22;;;-0.06;83.73
63901;BME280;50538;53.482;10.294;2023-02-26T20:25:29;102289.41;;;-0.20;83.81
63901;BME280;50538;53.482;10.294;2023-02-26T20:35:39;102294.34;;;-0.36;83.78
63901;BME280;50538;53.482;10.294;2023-02-26T20:46:28;102297.50;;;-0.49;83.99
63901;BME280;50538;53.482;10.294;2023-02-26T20:56:50;102310.81;;;-0.57;84.74
63901;BME280;50538;53.482;10.294;2023-02-26T21:07:17;102317.22;;;-0.66;85.57
63901;BME280;50538;53.482;10.294;2023-02-26T21:17:46;102319.25;;;-0.74;85.97
63901;BME280;50538;53.482;10.294;2023-02-26T21:27:49;102320.38;;;-0.81;86.05
63901;BME280;50538;53.482;10.294;2023-02-26T21:38:38;102332.72;;;-0.86;85.76
63901;BME280;50538;53.482;10.294;2023-02-26T21:48:42;102339.25;;;-0.99;86.39
63901;BME280;50538;53.482;10.294;2023-02-26T21:58:59;102353.28;;;-1.03;87.16
63901;BME280;50538;53.482;10.294;2023-02-26T22:09:42;102343.84;;;-1.06;87.00
63901;BME280;50538;53.482;10.294;2023-02-26T22:20:03;102343.91;;;-1.07;87.22
63901;BME280;50538;53.482;10.294;2023-02-26T22:40:57;102360.75;;;-1.17;87.73
63901;BME280;50538;53.482;10.294;2023-02-26T22:51:22;102357.44;;;-1.22;88.01
63901;BME280;50538;53.482;10.294;2023-02-26T23:01:23;102352.47;;;-1.30;88.28
63901;BME280;50538;53.482;10.294;2023-02-26T23:11:55;102365.66;;;-1.35;88.82
63901;BME280;50538;53.482;10.294;2023-02-26T23:22:21;102377.16;;;-1.42;88.68
63901;BME280;50538;53.482;10.294;2023-02-26T23:32:34;102376.47;;;-1.47;89.29
63901;BME280;50538;53.482;10.294;2023-02-26T23:42:47;102375.59;;;-1.47;89.32
63901;BME280;50538;53.482;10.294;2023-02-26T23:53:09;102386.22;;;-1.53;88.78
